sensor_id;sensor_type;location;lat;lon;timestamp;pressure;altitude;pressure_sealevel;temperature;humidity
60371;BME280;48550;40.588;49.684;2022-10-31T00:01:27;101606.31;;;11.56;100.00
60371;BME280;48550;40.588;49.684;2022-10-31T00:03:53;101600.75;;;11.51;100.00
60371;BME280;48550;40.588;49.684;2022-10-31T00:06:20;101603.00;;;11.54;100.00
60371;BME280;48550;40.588;49.684;2022-10-31T00:08:51;101610.22;;;11.60;100.00
60371;BME280;48550;40.588;49.684;2022-10-31T00:11:17;101609.16;;;11.61;100.00
60371;BME280;48550;40.588;49.684;2022-10-31T00:13:42;101610.38;;;11.65;100.00
60371;BME280;48550;40.588;49.684;2022-10-31T00:16:16;101602.19;;;11.54;100.00
60371;BME280;48550;40.588;49.684;2022-10-31T00:18:42;101599.16;;;11.43;100.00
60371;BME280;48550;40.588;49.684;2022-10-31T00:21:08;101608.91;;;11.38;100.00
60371;BME280;48550;40.588;49.684;2022-10-31T00:23:34;101593.03;;;11.30;100.00
60371;BME280;48550;40.588;49.684;2022-10-31T00:26:04;101593.09;;;11.23;100.00
60371;BME280;48550;40.588;49.684;2022-10-31T00:28:32;101599.94;;;11.12;100.00
60371;BME280;48550;40.588;49.684;2022-10-31T00:30:59;101592.13;;;11.04;100.00
60371;BME280;48550;40.588;49.684;2022-10-31T00:33:25;101601.25;;;10.97;100.00
60371;BME280;48550;40.588;49.684;2022-10-31T00:35:51;101601.28;;;10.90;100.00
60371;BME280;48550;40.588;49.684;2022-10-31T00:38:17;101596.72;;;10.91;100.00
60371;BME280;48550;40.588;49.684;2022-10-31T00:40:42;101595.72;;;10.85;100.00
60371;BME280;48550;40.588;49.684;2022-10-31T00:43:08;101588.91;;;10.82;100.00
60371;BME280;48550;40.588;49.684;2022-10-31T00:45:34;101590.34;;;10.85;100.00
60371;BME280;48550;40.588;49.684;2022-10-31T00:47:59;101583.13;;;10.86;100.00
60371;BME280;48550;40.588;49.684;2022-10-31T00:50:25;101586.88;;;10.78;100.00
60371;BME280;48550;40.588;49.684;2022-10-31T00:52:51;101585.25;;;10.70;100.00
60371;BME280;48550;40.588;49.684;2022-10-31T00:55:16;101591.69;;;10.63;100.00
60371;BME280;48550;40.588;49.684;2022-10-31T00:57:42;101594.19;;;10.58;100.00
60371;BME280;48550;40.588;49.684;2022-10-31T01:00:08;101592.34;;;10.52;100.00
60371;BME280;48550;40.588;49.684;2022-10-31T01:02:34;101597.31;;;10.41;100.00
60371;BME280;48550;40.588;49.684;2022-10-31T01:05:00;101588.84;;;10.38;100.00
60371;BME280;48550;40.588;49.684;2022-10-31T01:07:25;101592.75;;;10.35;100.00
60371;BME280;48550;40.588;49.684;2022-10-31T01:09:51;101594.81;;;10.33;100.00
60371;BME280;48550;40.588;49.684;2022-10-31T01:12:17;101582.88;;;10.23;100.00
60371;BME280;48550;40.588;49.684;2022-10-31T01:14:43;101589.06;;;10.30;100.00
60371;BME280;48550;40.588;49.684;2022-10-31T01:17:11;101595.66;;;10.40;100.00
60371;BME280;48550;40.588;49.684;2022-10-31T01:19:36;101589.25;;;10.35;100.00
60371;BME280;48550;40.588;49.684;2022-10-31T01:22:02;101582.88;;;10.23;100.00
60371;BME280;48550;40.588;49.684;2022-10-31T01:24:28;101588.03;;;10.11;100.00
60371;BME280;48550;40.588;49.684;2022-10-31T01:26:54;101584.72;;;10.02;100.00
60371;BME280;48550;40.588;49.684;2022-10-31T01:29:19;101590.72;;;9.98;100.00
60371;BME280;48550;40.588;49.684;2022-10-31T01:31:45;101585.78;;;9.95;100.00
60371;BME280;48550;40.588;49.684;2022-10-31T01:34:15;101593.63;;;9.90;100.00
60371;BME280;48550;40.588;49.684;2022-10-31T01:36:42;101590.72;;;9.84;100.00
60371;BME280;48550;40.588;49.684;2022-10-31T01:39:13;101596.09;;;9.84;100.00
60371;BME280;48550;40.588;49.684;2022-10-31T01:41:45;101594.84;;;9.80;100.00
60371;BME280;48550;40.588;49.684;2022-10-31T01:47:03;101598.16;;;9.82;100.00
60371;BME280;48550;40.588;49.684;2022-10-31T01:49:35;101599.81;;;9.83;100.00
60371;BME280;48550;40.588;49.684;2022-10-31T01:52:27;101599.38;;;9.73;100.00
60371;BME280;48550;40.588;49.684;2022-10-31T01:55:09;101605.31;;;9.62;100.00
60371;BME280;48550;40.588;49.684;2022-10-31T01:57:40;101597.28;;;9.62;100.00
60371;BME280;48550;40.588;49.684;2022-10-31T02:00:09;101595.47;;;9.76;100.00
60371;BME280;48550;40.588;49.684;2022-10-31T02:02:35;101593.00;;;9.68;100.00
60371;BME280;48550;40.588;49.684;2022-10-31T02:05:05;101601.41;;;9.58;100.00
60371;BME280;48550;40.588;49.684;2022-10-31T02:07:48;101597.47;;;9.47;100.00
60371;BME280;48550;40.588;49.684;2022-10-31T02:10:19;101593.56;;;9.56;100.00
60371;BME280;48550;40.588;49.684;2022-10-31T02:12:46;101594.59;;;9.62;100.00
60371;BME280;48550;40.588;49.684;2022-10-31T02:15:12;101592.34;;;9.52;100.00
60371;BME280;48550;40.588;49.684;2022-10-31T02:17:38;101602.41;;;9.44;100.00
60371;BME280;48550;40.588;49.684;2022-10-31T02:20:18;101604.06;;;9.38;100.00
60371;BME280;48550;40.588;49.684;2022-10-31T02:34:33;101599.94;;;9.36;100.00
60371;BME280;48550;40.588;49.684;2022-10-31T02:37:14;101589.22;;;9.36;100.00
60371;BME280;48550;40.588;49.684;2022-10-31T02:39:57;101586.09;;;9.26;100.00
60371;BME280;48550;40.588;49.684;2022-10-31T02:48:19;101600.94;;;9.21;100.00
60371;BME280;48550;40.588;49.684;2022-10-31T02:50:55;101596.81;;;9.19;100.00
60371;BME280;48550;40.588;49.684;2022-10-31T02:53:22;101591.03;;;9.15;100.00
60371;BME280;48550;40.588;49.684;2022-10-31T02:58:26;101585.69;;;9.22;100.00
60371;BME280;48550;40.588;49.684;2022-10-31T03:06:32;101579.91;;;9.18;100.00
60371;BME280;48550;40.588;49.684;2022-10-31T03:09:07;101592.69;;;9.16;100.00
60371;BME280;48550;40.588;49.684;2022-10-31T03:12:04;101585.44;;;9.10;100.00
60371;BME280;48550;40.588;49.684;2022-10-31T03:14:41;101588.53;;;9.14;100.00
60371;BME280;48550;40.588;49.684;2022-10-31T03:17:12;101584.84;;;9.15;100.00
60371;BME280;48550;40.588;49.684;2022-10-31T03:19:43;101577.63;;;9.15;100.00
60371;BME280;48550;40.588;49.684;2022-10-31T03:22:17;101583.22;;;9.20;100.00
60371;BME280;48550;40.588;49.684;2022-10-31T03:24:46;101580.31;;;9.22;100.00
60371;BME280;48550;40.588;49.684;2022-10-31T03:27:15;101574.16;;;9.35;100.00
60371;BME280;48550;40.588;49.684;2022-10-31T03:29:44;101577.13;;;9.66;100.00
60371;BME280;48550;40.588;49.684;2022-10-31T03:32:15;101576.28;;;9.79;100.00
60371;BME280;48550;40.588;49.684;2022-10-31T03:34:43;101575.47;;;9.85;100.00
60371;BME280;48550;40.588;49.684;2022-10-31T03:37:15;101576.06;;;10.00;100.00
60371;BME280;48550;40.588;49.684;2022-10-31T03:39:43;101581.03;;;9.97;100.00
60371;BME280;48550;40.588;49.684;2022-10-31T03:42:15;101578.34;;;9.97;100.00
60371;BME280;48550;40.588;49.684;2022-10-31T03:44:46;101581.22;;;10.02;100.00
60371;BME280;48550;40.588;49.684;2022-10-31T03:47:13;101578.75;;;10.13;100.00
60371;BME280;48550;40.588;49.684;2022-10-31T03:49:39;101581.63;;;10.25;100.00
60371;BME280;48550;40.588;49.684;2022-10-31T03:55:20;101590.06;;;10.48;100.00
60371;BME280;48550;40.588;49.684;2022-10-31T04:00:18;101579.16;;;10.95;100.00
60371;BME280;48550;40.588;49.684;2022-10-31T04:03:08;101579.59;;;11.30;100.00
60371;BME280;48550;40.588;49.684;2022-10-31T04:05:36;101585.72;;;11.43;100.00
60371;BME280;48550;40.588;49.684;2022-10-31T04:08:07;101580.22;;;11.88;100.00
60371;BME280;48550;40.588;49.684;2022-10-31T04:10:37;101589.41;;;12.49;100.00
60371;BME280;48550;40.588;49.684;2022-10-31T04:13:11;101585.22;;;12.89;100.00
60371;BME280;48550;40.588;49.684;2022-10-31T04:15:38;101582.97;;;12.86;100.00
60371;BME280;48550;40.588;49.684;2022-10-31T04:18:06;101581.94;;;14.12;100.00
60371;BME280;48550;40.588;49.684;2022-10-31T04:20:37;101590.84;;;17.01;100.00
60371;BME280;48550;40.588;49.684;2022-10-31T04:23:04;101596.63;;;18.69;100.00
60371;BME280;48550;40.588;49.684;2022-10-31T04:25:30;101597.94;;;19.45;100.00
60371;BME280;48550;40.588;49.684;2022-10-31T04:27:56;101612.13;;;20.43;100.00
60371;BME280;48550;40.588;49.684;2022-10-31T04:30:22;101609.69;;;21.61;93.97
60371;BME280;48550;40.588;49.684;2022-10-31T04:32:48;101606.53;;;22.11;69.06
60371;BME280;48550;40.588;49.684;2022-10-31T04:35:13;101609.09;;;22.56;60.53
60371;BME280;48550;40.588;49.684;2022-10-31T04:37:39;101613.91;;;23.11;57.35
60371;BME280;48550;40.588;49.684;2022-10-31T04:40:05;101611.63;;;23.56;53.45
60371;BME280;48550;40.588;49.684;2022-10-31T04:42:31;101610.75;;;23.80;49.28
60371;BME280;48550;40.588;49.684;2022-10-31T04:44:57;101610.75;;;23.80;48.86
60371;BME280;48550;40.588;49.684;2022-10-31T04:47:23;101604.94;;;23.81;47.02
60371;BME280;48550;40.588;49.684;2022-10-31T04:49:48;101603.91;;;24.56;45.92
60371;BME280;48550;40.588;49.684;2022-10-31T04:52:14;101607.75;;;24.82;43.10
60371;BME280;48550;40.588;49.684;2022-10-31T04:54:40;101597.47;;;24.88;42.79
60371;BME280;48550;40.588;49.684;2022-10-31T04:57:05;101595.44;;;24.80;43.08
60371;BME280;48550;40.588;49.684;2022-10-31T04:59:31;101600.84;;;24.71;42.33
60371;BME280;48550;40.588;49.684;2022-10-31T05:01:57;101599.69;;;24.45;42.69
60371;BME280;48550;40.588;49.684;2022-10-31T05:04:22;101597.16;;;24.34;41.84
60371;BME280;48550;40.588;49.684;2022-10-31T05:06:48;101586.38;;;24.38;41.84
60371;BME280;48550;40.588;49.684;2022-10-31T05:09:14;101583.84;;;24.83;39.98
60371;BME280;48550;40.588;49.684;2022-10-31T05:11:39;101585.66;;;24.87;41.09
60371;BME280;48550;40.588;49.684;2022-10-31T05:14:05;101580.25;;;25.10;40.96
60371;BME280;48550;40.588;49.684;2022-10-31T05:16:31;101586.28;;;24.70;40.65
60371;BME280;48550;40.588;49.684;2022-10-31T05:18:57;101583.38;;;25.53;39.69
60371;BME280;48550;40.588;49.684;2022-10-31T05:21:22;101587.94;;;26.02;37.78
60371;BME280;48550;40.588;49.684;2022-10-31T05:23:48;101584.28;;;25.26;38.54
60371;BME280;48550;40.588;49.684;2022-10-31T05:26:14;101584.53;;;25.02;39.39
60371;BME280;48550;40.588;49.684;2022-10-31T05:28:39;101577.72;;;24.99;40.50
60371;BME280;48550;40.588;49.684;2022-10-31T05:31:05;101586.28;;;24.70;39.87
60371;BME280;48550;40.588;49.684;2022-10-31T05:33:31;101578.25;;;25.01;39.43
60371;BME280;48550;40.588;49.684;2022-10-31T05:35:56;101573.56;;;25.60;38.99
60371;BME280;48550;40.588;49.684;2022-10-31T05:38:22;101560.06;;;25.50;37.88
60371;BME280;48550;40.588;49.684;2022-10-31T05:40:48;101556.06;;;25.34;37.78
60371;BME280;48550;40.588;49.684;2022-10-31T05:43:13;101549.16;;;25.23;38.18
60371;BME280;48550;40.588;49.684;2022-10-31T05:45:39;101555.66;;;24.91;39.21
60371;BME280;48550;40.588;49.684;2022-10-31T05:48:05;101546.31;;;24.78;38.73
60371;BME280;48550;40.588;49.684;2022-10-31T05:50:31;101544.72;;;24.63;38.30
60371;BME280;48550;40.588;49.684;2022-10-31T05:53:01;101549.34;;;25.26;37.71
60371;BME280;48550;40.588;49.684;2022-10-31T05:55:27;101546.31;;;25.50;37.94
60371;BME280;48550;40.588;49.684;2022-10-31T05:57:54;101537.38;;;26.20;36.14
60371;BME280;48550;40.588;49.684;2022-10-31T06:00:21;101530.72;;;26.21;35.13
60371;BME280;48550;40.588;49.684;2022-10-31T06:02:47;101538.34;;;25.93;35.21
60371;BME280;48550;40.588;49.684;2022-10-31T06:05:13;101530.28;;;25.44;36.20
60371;BME280;48550;40.588;49.684;2022-10-31T06:07:39;101527.50;;;26.19;35.29
60371;BME280;48550;40.588;49.684;2022-10-31T06:10:07;101519.69;;;25.82;35.26
60371;BME280;48550;40.588;49.684;2022-10-31T06:12:33;101517.94;;;26.74;34.80
60371;BME280;48550;40.588;49.684;2022-10-31T06:15:07;101509.81;;;25.81;35.28
60371;BME280;48550;40.588;49.684;2022-10-31T06:17:34;101506.97;;;25.63;35.80
60371;BME280;48550;40.588;49.684;2022-10-31T06:20:00;101512.13;;;25.87;35.51
60371;BME280;48550;40.588;49.684;2022-10-31T06:22:27;101503.72;;;25.61;36.60
60371;BME280;48550;40.588;49.684;2022-10-31T06:24:53;101501.34;;;25.69;36.24
60371;BME280;48550;40.588;49.684;2022-10-31T06:27:18;101494.84;;;25.64;36.32
60371;BME280;48550;40.588;49.684;2022-10-31T06:29:44;101487.97;;;26.15;35.40
60371;BME280;48550;40.588;49.684;2022-10-31T06:32:12;101488.13;;;25.79;35.99
60371;BME280;48550;40.588;49.684;2022-10-31T06:34:39;101479.03;;;25.70;35.99
60371;BME280;48550;40.588;49.684;2022-10-31T06:37:10;101480.22;;;25.55;36.08
60371;BME280;48550;40.588;49.684;2022-10-31T06:39:36;101472.16;;;25.28;37.00
60371;BME280;48550;40.588;49.684;2022-10-31T06:42:02;101471.34;;;25.27;37.25
60371;BME280;48550;40.588;49.684;2022-10-31T06:44:27;101475.13;;;23.26;41.86
60371;BME280;48550;40.588;49.684;2022-10-31T06:46:53;101458.78;;;21.40;48.61
60371;BME280;48550;40.588;49.684;2022-10-31T06:49:19;101451.09;;;20.09;55.98
60371;BME280;48550;40.588;49.684;2022-10-31T06:51:48;101447.09;;;19.25;62.65
60371;BME280;48550;40.588;49.684;2022-10-31T06:54:14;101443.56;;;18.79;63.52
60371;BME280;48550;40.588;49.684;2022-10-31T06:56:40;101437.16;;;18.43;64.65
60371;BME280;48550;40.588;49.684;2022-10-31T06:59:06;101420.84;;;18.38;76.85
60371;BME280;48550;40.588;49.684;2022-10-31T07:01:31;101426.00;;;18.34;73.65
60371;BME280;48550;40.588;49.684;2022-10-31T07:03:57;101411.31;;;18.35;71.27
60371;BME280;48550;40.588;49.684;2022-10-31T07:06:23;101413.22;;;18.35;70.09
60371;BME280;48550;40.588;49.684;2022-10-31T07:08:49;101406.44;;;18.42;75.89
60371;BME280;48550;40.588;49.684;2022-10-31T07:11:14;101404.28;;;18.45;70.61
60371;BME280;48550;40.588;49.684;2022-10-31T07:13:40;101397.50;;;18.52;68.04
60371;BME280;48550;40.588;49.684;2022-10-31T07:16:07;101397.75;;;18.46;65.52
60371;BME280;48550;40.588;49.684;2022-10-31T07:18:33;101386.63;;;18.57;65.73
60371;BME280;48550;40.588;49.684;2022-10-31T07:20:59;101388.59;;;18.62;62.46
60371;BME280;48550;40.588;49.684;2022-10-31T07:23:25;101379.53;;;18.46;59.88
60371;BME280;48550;40.588;49.684;2022-10-31T07:25:56;101382.81;;;18.48;61.58
60371;BME280;48550;40.588;49.684;2022-10-31T07:28:22;101369.75;;;18.50;59.06
60371;BME280;48550;40.588;49.684;2022-10-31T07:30:56;101365.69;;;18.58;58.67
60371;BME280;48550;40.588;49.684;2022-10-31T07:33:23;101358.44;;;18.63;60.45
60371;BME280;48550;40.588;49.684;2022-10-31T07:35:51;101343.94;;;18.58;60.33
60371;BME280;48550;40.588;49.684;2022-10-31T07:38:17;101335.03;;;18.62;61.14
60371;BME280;48550;40.588;49.684;2022-10-31T07:40:43;101336.06;;;18.56;62.69
60371;BME280;48550;40.588;49.684;2022-10-31T07:43:10;101322.53;;;18.61;62.85
60371;BME280;48550;40.588;49.684;2022-10-31T07:45:37;101324.97;;;18.63;63.43
60371;BME280;48550;40.588;49.684;2022-10-31T07:48:03;101311.59;;;18.41;63.41
60371;BME280;48550;40.588;49.684;2022-10-31T07:50:30;101298.00;;;18.46;65.07
60371;BME280;48550;40.588;49.684;2022-10-31T07:53:10;101284.97;;;18.58;66.24
60371;BME280;48550;40.588;49.684;2022-10-31T07:55:36;101272.78;;;18.71;64.66
60371;BME280;48550;40.588;49.684;2022-10-31T07:58:04;101271.41;;;18.73;64.89
60371;BME280;48550;40.588;49.684;2022-10-31T08:00:32;101258.91;;;18.78;64.62
60371;BME280;48550;40.588;49.684;2022-10-31T08:03:02;101249.66;;;18.73;63.07
60371;BME280;48550;40.588;49.684;2022-10-31T08:05:29;101247.50;;;18.70;63.27
60371;BME280;48550;40.588;49.684;2022-10-31T08:07:55;101241.75;;;18.77;64.11
60371;BME280;48550;40.588;49.684;2022-10-31T08:10:21;101220.25;;;18.91;65.22
60371;BME280;48550;40.588;49.684;2022-10-31T08:12:47;101215.34;;;18.93;62.26
60371;BME280;48550;40.588;49.684;2022-10-31T08:15:19;101211.53;;;18.94;62.91
60371;BME280;48550;40.588;49.684;2022-10-31T08:17:45;101202.56;;;18.88;61.43
60371;BME280;48550;40.588;49.684;2022-10-31T08:20:11;101193.03;;;19.01;63.89
60371;BME280;48550;40.588;49.684;2022-10-31T08:22:36;101188.06;;;19.13;62.20
60371;BME280;48550;40.588;49.684;2022-10-31T08:25:02;101177.69;;;19.25;57.54
60371;BME280;48550;40.588;49.684;2022-10-31T08:27:28;101178.44;;;19.41;56.93
60371;BME280;48550;40.588;49.684;2022-10-31T08:29:54;101163.97;;;19.56;56.38
60371;BME280;48550;40.588;49.684;2022-10-31T08:32:19;101152.75;;;19.62;55.14
60371;BME280;48550;40.588;49.684;2022-10-31T08:34:45;101136.75;;;19.56;53.95
60371;BME280;48550;40.588;49.684;2022-10-31T08:37:11;101128.78;;;19.64;54.11
60371;BME280;48550;40.588;49.684;2022-10-31T08:39:36;101126.78;;;19.75;53.75
60371;BME280;48550;40.588;49.684;2022-10-31T08:42:02;101125.69;;;19.76;52.78
60371;BME280;48550;40.588;49.684;2022-10-31T08:44:28;101107.13;;;19.83;51.81
60371;BME280;48550;40.588;49.684;2022-10-31T08:46:53;101106.50;;;19.91;50.87
60371;BME280;48550;40.588;49.684;2022-10-31T08:49:19;101099.09;;;19.97;50.20
60371;BME280;48550;40.588;49.684;2022-10-31T08:51:47;101096.56;;;20.06;49.28
60371;BME280;48550;40.588;49.684;2022-10-31T08:54:13;101098.13;;;20.17;49.95
60371;BME280;48550;40.588;49.684;2022-10-31T08:56:39;101087.69;;;20.24;49.24
60371;BME280;48550;40.588;49.684;2022-10-31T08:59:05;101084.50;;;20.46;45.28
60371;BME280;48550;40.588;49.684;2022-10-31T09:01:30;101081.59;;;20.61;43.34
60371;BME280;48550;40.588;49.684;2022-10-31T09:03:56;101083.28;;;20.81;43.94
60371;BME280;48550;40.588;49.684;2022-10-31T09:06:22;101075.50;;;20.93;42.18
60371;BME280;48550;40.588;49.684;2022-10-31T09:08:47;101077.63;;;20.96;41.38
60371;BME280;48550;40.588;49.684;2022-10-31T09:11:13;101066.59;;;21.06;41.40
60371;BME280;48550;40.588;49.684;2022-10-31T09:13:39;101056.47;;;21.07;40.59
60371;BME280;48550;40.588;49.684;2022-10-31T09:16:05;101064.59;;;21.12;41.55
60371;BME280;48550;40.588;49.684;2022-10-31T09:18:31;101059.34;;;21.15;43.08
60371;BME280;48550;40.588;49.684;2022-10-31T09:20:58;101054.78;;;21.11;45.52
60371;BME280;48550;40.588;49.684;2022-10-31T09:23:24;101050.81;;;21.03;46.62
60371;BME280;48550;40.588;49.684;2022-10-31T09:25:52;101058.16;;;20.84;48.68
60371;BME280;48550;40.588;49.684;2022-10-31T09:28:20;101047.47;;;20.63;49.32
60371;BME280;48550;40.588;49.684;2022-10-31T09:30:47;101047.94;;;20.47;51.28
60371;BME280;48550;40.588;49.684;2022-10-31T09:33:13;101045.59;;;20.35;51.45
60371;BME280;48550;40.588;49.684;2022-10-31T09:35:40;101045.72;;;20.25;53.69
60371;BME280;48550;40.588;49.684;2022-10-31T09:38:11;101039.41;;;20.00;56.56
60371;BME280;48550;40.588;49.684;2022-10-31T09:49:21;101024.16;;;19.36;61.34
60371;BME280;48550;40.588;49.684;2022-10-31T09:51:55;101024.00;;;19.13;61.96
60371;BME280;48550;40.588;49.684;2022-10-31T09:55:05;101035.78;;;19.03;68.04
60371;BME280;48550;40.588;49.684;2022-10-31T09:57:15;101030.50;;;18.72;96.92
60371;BME280;48550;40.588;49.684;2022-10-31T09:59:43;101032.81;;;18.20;100.00
60371;BME280;48550;40.588;49.684;2022-10-31T10:02:39;101040.69;;;17.60;100.00
60371;BME280;48550;40.588;49.684;2022-10-31T10:05:19;101024.66;;;17.18;100.00
60371;BME280;48550;40.588;49.684;2022-10-31T10:08:00;101037.88;;;16.99;100.00
60371;BME280;48550;40.588;49.684;2022-10-31T10:16:38;101059.84;;;16.98;100.00
60371;BME280;48550;40.588;49.684;2022-10-31T10:22:18;101049.44;;;16.69;100.00
60371;BME280;48550;40.588;49.684;2022-10-31T10:30:17;101049.31;;;16.44;100.00
60371;BME280;48550;40.588;49.684;2022-10-31T10:32:58;101051.63;;;16.25;100.00
60371;BME280;48550;40.588;49.684;2022-10-31T10:37:58;101057.84;;;16.26;100.00
60371;BME280;48550;40.588;49.684;2022-10-31T10:40:28;101046.09;;;16.05;100.00
60371;BME280;48550;40.588;49.684;2022-10-31T10:46:31;101051.19;;;16.01;100.00
60371;BME280;48550;40.588;49.684;2022-10-31T10:49:22;101041.69;;;15.94;100.00
60371;BME280;48550;40.588;49.684;2022-10-31T10:57:20;101039.50;;;15.91;100.00
60371;BME280;48550;40.588;49.684;2022-10-31T10:59:47;101043.81;;;15.92;100.00
60371;BME280;48550;40.588;49.684;2022-10-31T11:02:26;101037.94;;;16.00;100.00
60371;BME280;48550;40.588;49.684;2022-10-31T11:04:58;101039.81;;;15.99;100.00
60371;BME280;48550;40.588;49.684;2022-10-31T11:07:25;101036.53;;;15.92;100.00
60371;BME280;48550;40.588;49.684;2022-10-31T11:10:03;101035.44;;;15.93;100.00
60371;BME280;48550;40.588;49.684;2022-10-31T11:12:32;101032.75;;;15.93;100.00
60371;BME280;48550;40.588;49.684;2022-10-31T11:15:07;101041.63;;;15.88;100.00
60371;BME280;48550;40.588;49.684;2022-10-31T11:17:39;101029.44;;;15.86;100.00
60371;BME280;48550;40.588;49.684;2022-10-31T11:20:27;101043.47;;;15.78;100.00
60371;BME280;48550;40.588;49.684;2022-10-31T11:23:36;101037.19;;;15.72;100.00
60371;BME280;48550;40.588;49.684;2022-10-31T11:26:00;101032.00;;;15.66;100.00
60371;BME280;48550;40.588;49.684;2022-10-31T11:28:28;101038.50;;;15.65;100.00
60371;BME280;48550;40.588;49.684;2022-10-31T11:31:08;101031.97;;;15.61;100.00
60371;BME280;48550;40.588;49.684;2022-10-31T11:33:48;101038.22;;;15.66;100.00
60371;BME280;48550;40.588;49.684;2022-10-31T11:36:28;101036.38;;;15.72;100.00
60371;BME280;48550;40.588;49.684;2022-10-31T11:38:55;101034.41;;;15.62;100.00
60371;BME280;48550;40.588;49.684;2022-10-31T11:41:35;101034.66;;;15.61;100.00
60371;BME280;48550;40.588;49.684;2022-10-31T11:44:14;101038.91;;;15.56;100.00
60371;BME280;48550;40.588;49.684;2022-10-31T11:46:49;101021.81;;;15.51;100.00
60371;BME280;48550;40.588;49.684;2022-10-31T11:49:27;101024.50;;;15.51;100.00
60371;BME280;48550;40.588;49.684;2022-10-31T11:51:55;101029.66;;;15.52;100.00
60371;BME280;48550;40.588;49.684;2022-10-31T11:57:26;101033.41;;;15.46;100.00
60371;BME280;48550;40.588;49.684;2022-10-31T11:59:54;101034.47;;;15.45;100.00
60371;BME280;48550;40.588;49.684;2022-10-31T12:02:21;101030.13;;;15.44;100.00
60371;BME280;48550;40.588;49.684;2022-10-31T12:05:08;101039.06;;;15.45;100.00
60371;BME280;48550;40.588;49.684;2022-10-31T12:07:37;101042.00;;;15.38;100.00
60371;BME280;48550;40.588;49.684;2022-10-31T12:10:10;101038.72;;;15.36;100.00
60371;BME280;48550;40.588;49.684;2022-10-31T12:15:33;101030.81;;;15.30;100.00
60371;BME280;48550;40.588;49.684;2022-10-31T12:29:27;101037.91;;;15.09;100.00
60371;BME280;48550;40.588;49.684;2022-10-31T12:37:51;101038.31;;;14.96;100.00
60371;BME280;48550;40.588;49.684;2022-10-31T12:45:58;101056.66;;;14.93;100.00
60371;BME280;48550;40.588;49.684;2022-10-31T12:48:46;101054.38;;;14.85;100.00
60371;BME280;48550;40.588;49.684;2022-10-31T12:51:39;101055.81;;;14.88;100.00
60371;BME280;48550;40.588;49.684;2022-10-31T12:56:45;101050.50;;;14.76;100.00
60371;BME280;48550;40.588;49.684;2022-10-31T13:01:53;101052.63;;;14.74;100.00
60371;BME280;48550;40.588;49.684;2022-10-31T13:06:55;101050.06;;;14.62;100.00
60371;BME280;48550;40.588;49.684;2022-10-31T13:09:29;101050.31;;;14.61;100.00
60371;BME280;48550;40.588;49.684;2022-10-31T13:12:02;101058.09;;;14.57;100.00
60371;BME280;48550;40.588;49.684;2022-10-31T13:14:35;101060.75;;;14.52;100.00
60371;BME280;48550;40.588;49.684;2022-10-31T13:17:04;101054.47;;;14.47;100.00
60371;BME280;48550;40.588;49.684;2022-10-31T13:19:40;101056.84;;;14.43;100.00
60371;BME280;48550;40.588;49.684;2022-10-31T13:22:27;101057.31;;;14.40;100.00
60371;BME280;48550;40.588;49.684;2022-10-31T13:25:09;101055.84;;;14.32;100.00
60371;BME280;48550;40.588;49.684;2022-10-31T13:27:54;101056.22;;;14.19;100.00
60371;BME280;48550;40.588;49.684;2022-10-31T13:30:23;101062.75;;;14.23;100.00
60371;BME280;48550;40.588;49.684;2022-10-31T13:46:22;101070.59;;;14.08;100.00
60371;BME280;48550;40.588;49.684;2022-10-31T13:48:48;101069.78;;;14.08;100.00
60371;BME280;48550;40.588;49.684;2022-10-31T13:51:24;101061.59;;;14.03;100.00
60371;BME280;48550;40.588;49.684;2022-10-31T13:56:20;101061.94;;;14.06;100.00
60371;BME280;48550;40.588;49.684;2022-10-31T13:59:23;101069.94;;;14.01;100.00
60371;BME280;48550;40.588;49.684;2022-10-31T14:02:00;101063.00;;;14.05;100.00
60371;BME280;48550;40.588;49.684;2022-10-31T14:04:28;101065.69;;;14.05;100.00
60371;BME280;48550;40.588;49.684;2022-10-31T14:07:12;101076.50;;;14.05;100.00
60371;BME280;48550;40.588;49.684;2022-10-31T14:10:04;101077.06;;;14.07;100.00
60371;BME280;48550;40.588;49.684;2022-10-31T14:12:38;101076.41;;;14.00;100.00
60371;BME280;48550;40.588;49.684;2022-10-31T14:17:46;101092.28;;;13.80;100.00
60371;BME280;48550;40.588;49.684;2022-10-31T14:22:40;101100.84;;;13.77;100.00
60371;BME280;48550;40.588;49.684;2022-10-31T14:25:31;101089.75;;;13.73;100.00
60371;BME280;48550;40.588;49.684;2022-10-31T14:27:59;101096.78;;;13.74;100.00
60371;BME280;48550;40.588;49.684;2022-10-31T14:30:27;101094.31;;;13.73;100.00
60371;BME280;48550;40.588;49.684;2022-10-31T14:33:08;101092.19;;;13.75;100.00
60371;BME280;48550;40.588;49.684;2022-10-31T14:36:07;101089.25;;;13.76;100.00
60371;BME280;48550;40.588;49.684;2022-10-31T14:38:53;101100.84;;;13.77;100.00
60371;BME280;48550;40.588;49.684;2022-10-31T14:47:02;101102.66;;;13.71;100.00
60371;BME280;48550;40.588;49.684;2022-10-31T14:52:27;101098.56;;;13.68;100.00
60371;BME280;48550;40.588;49.684;2022-10-31T14:54:55;101107.22;;;13.71;100.00
60371;BME280;48550;40.588;49.684;2022-10-31T14:57:29;101108.53;;;13.68;100.00
60371;BME280;48550;40.588;49.684;2022-10-31T15:00:01;101109.84;;;13.65;100.00
60371;BME280;48550;40.588;49.684;2022-10-31T15:05:10;101107.06;;;13.60;100.00
60371;BME280;48550;40.588;49.684;2022-10-31T15:07:36;101105.09;;;13.56;100.00